Time;durP1;ratioP1;P1;durP2;ratioP2;P2;SDS_P1;SDS_P2;PMS_P1;PMS_P2;Temp;Humidity;BMP_temperature;BMP_pressure;BME280_temperature;BME280_humidity;BME280_pressure;Samples;Min_cycle;Max_cycle;Signal;HPM_P1;HPM_P2
2021/08/04 00:00:26;;;;;;;6.10;3.10;;;16.90;99.90;;;;;;4977927;28;20404;-63
2021/08/04 00:02:52;;;;;;;9.13;3.42;;;16.80;99.90;;;;;;4975938;28;20404;-63
2021/08/04 00:05:18;;;;;;;6.93;3.40;;;16.70;99.90;;;;;;4979902;28;20437;-63
2021/08/04 00:07:43;;;;;;;9.23;3.15;;;16.70;99.90;;;;;;4982246;28;20395;-63
2021/08/04 00:10:09;;;;;;;7.47;3.13;;;16.70;99.90;;;;;;4981737;28;20426;-63
2021/08/04 00:12:35;;;;;;;9.65;3.58;;;16.70;99.90;;;;;;4984178;28;20398;-64
2021/08/04 00:15:01;;;;;;;7.50;3.30;;;16.80;99.90;;;;;;4981903;28;20467;-63
2021/08/04 00:17:26;;;;;;;7.33;3.03;;;16.80;99.90;;;;;;4983104;28;20402;-63
2021/08/04 00:19:52;;;;;;;8.60;3.47;;;16.80;99.90;;;;;;4984082;28;20398;-63
2021/08/04 00:22:18;;;;;;;9.60;3.23;;;16.80;99.90;;;;;;4981255;28;20387;-63
2021/08/04 00:24:44;;;;;;;6.83;3.23;;;16.80;99.90;;;;;;4977926;28;20474;-63
2021/08/04 00:27:09;;;;;;;8.95;3.60;;;16.80;99.90;;;;;;4972892;28;20721;-63
2021/08/04 00:29:35;;;;;;;8.83;3.40;;;16.70;99.90;;;;;;4981669;28;20414;-63
2021/08/04 00:32:00;;;;;;;7.43;3.20;;;16.70;99.90;;;;;;4973764;28;20385;-63
2021/08/04 00:34:26;;;;;;;7.23;3.57;;;16.60;99.90;;;;;;4973748;28;20407;-63
2021/08/04 00:36:52;;;;;;;7.50;3.47;;;16.60;99.90;;;;;;4956826;28;20418;-63
2021/08/04 00:39:17;;;;;;;8.48;4.32;;;16.60;99.90;;;;;;4972489;28;20388;-63
2021/08/04 00:41:43;;;;;;;8.20;3.58;;;16.60;99.90;;;;;;4973722;28;20482;-62
2021/08/04 00:44:09;;;;;;;6.73;3.07;;;16.60;99.90;;;;;;4955134;28;20396;-63
2021/08/04 00:46:40;;;;;;;9.70;3.40;;;16.50;99.90;;;;;;4973105;28;20416;-63
2021/08/04 00:49:06;;;;;;;8.55;2.80;;;16.60;99.90;;;;;;4972160;28;20444;-63
2021/08/04 00:51:31;;;;;;;8.37;2.87;;;16.60;99.90;;;;;;4972953;28;20431;-63
2021/08/04 00:53:57;;;;;;;7.60;2.43;;;16.50;99.90;;;;;;4972815;28;20883;-61
2021/08/04 00:56:23;;;;;;;6.50;2.60;;;16.60;99.90;;;;;;4981092;28;20901;-63
2021/08/04 00:58:49;;;;;;;8.50;2.67;;;16.60;99.90;;;;;;4975312;28;20380;-63
2021/08/04 01:01:21;;;;;;;9.35;3.00;;;16.60;99.90;;;;;;4972683;28;20388;-63
2021/08/04 01:03:54;;;;;;;5.38;2.42;;;16.70;99.90;;;;;;4973015;28;20392;-62
2021/08/04 01:06:34;;;;;;;6.93;2.70;;;16.60;99.90;;;;;;4972152;28;20394;-62
2021/08/04 01:08:59;;;;;;;6.15;2.60;;;16.50;99.90;;;;;;4972918;28;20411;-60
2021/08/04 01:11:36;;;;;;;7.60;2.97;;;16.50;99.90;;;;;;4972103;28;20493;-62
2021/08/04 01:14:06;;;;;;;7.60;2.47;;;16.50;99.90;;;;;;4971861;28;20944;-60
2021/08/04 01:16:36;;;;;;;8.15;2.67;;;16.50;99.90;;;;;;4972405;28;20408;-62
2021/08/04 01:19:39;;;;;;;10.32;2.90;;;16.50;99.90;;;;;;4970748;28;20438;-60
2021/08/04 01:22:07;;;;;;;7.00;2.63;;;16.50;99.90;;;;;;4971521;28;20531;-62
2021/08/04 01:24:45;;;;;;;8.00;3.20;;;16.40;99.90;;;;;;4972313;28;20392;-63
2021/08/04 01:27:15;;;;;;;7.25;2.60;;;16.40;99.90;;;;;;4971628;28;20958;-62
2021/08/04 01:29:41;;;;;;;6.75;3.22;;;16.40;99.90;;;;;;4972632;28;20416;-63
2021/08/04 01:32:09;;;;;;;5.70;2.60;;;16.40;99.90;;;;;;4971711;28;20388;-63
2021/08/04 01:34:36;;;;;;;6.10;2.70;;;16.30;99.90;;;;;;4972628;28;20381;-63
2021/08/04 01:37:04;;;;;;;5.50;2.40;;;16.40;99.90;;;;;;4971909;28;20409;-60
2021/08/04 01:39:33;;;;;;;6.50;2.70;;;16.40;99.90;;;;;;4972467;28;20756;-63
2021/08/04 01:41:59;;;;;;;6.00;2.80;;;16.40;99.90;;;;;;4972108;28;20394;-63
2021/08/04 01:44:26;;;;;;;8.25;2.65;;;16.30;99.90;;;;;;4971509;28;20396;-63
2021/08/04 01:46:53;;;;;;;8.20;2.78;;;16.30;99.90;;;;;;4971803;28;20412;-63
2021/08/04 01:49:19;;;;;;;5.85;2.30;;;16.30;99.90;;;;;;4971609;28;20420;-63
2021/08/04 01:51:47;;;;;;;6.03;2.70;;;16.30;99.90;;;;;;4954815;28;20404;-63
2021/08/04 01:54:15;;;;;;;7.63;2.72;;;16.30;99.90;;;;;;4971076;28;20390;-63
2021/08/04 01:56:41;;;;;;;5.95;2.80;;;16.40;99.90;;;;;;4976531;28;20416;-62
2021/08/04 01:59:07;;;;;;;9.77;3.20;;;16.40;99.90;;;;;;4985897;28;20396;-62
2021/08/04 02:01:35;;;;;;;10.48;3.05;;;16.40;99.90;;;;;;4972306;28;20443;-62
2021/08/04 02:04:01;;;;;;;7.20;2.47;;;16.40;99.90;;;;;;4971904;28;20876;-62
2021/08/04 02:06:40;;;;;;;5.78;2.65;;;16.40;99.90;;;;;;4971384;28;20508;-62
2021/08/04 02:09:45;;;;;;;10.07;2.80;;;16.40;99.90;;;;;;4971165;28;20424;-61
2021/08/04 02:12:11;;;;;;;6.25;2.83;;;16.30;99.90;;;;;;4956706;28;20416;-63
2021/08/04 02:14:52;;;;;;;8.10;2.60;;;16.20;99.90;;;;;;4972003;28;20412;-62
2021/08/04 02:17:45;;;;;;;8.55;2.80;;;16.10;99.90;;;;;;4970683;28;20423;-62
2021/08/04 02:20:21;;;;;;;9.40;3.08;;;16.10;99.90;;;;;;4967993;28;20403;-62
2021/08/04 02:22:57;;;;;;;5.85;2.90;;;16.10;99.90;;;;;;4954397;28;20418;-62
2021/08/04 02:25:31;;;;;;;7.35;3.45;;;16.10;99.90;;;;;;4970700;28;20492;-62
2021/08/04 02:27:59;;;;;;;8.10;3.20;;;16.10;99.90;;;;;;4971703;28;20459;-63
2021/08/04 02:30:25;;;;;;;8.60;3.17;;;16.00;99.90;;;;;;4970442;28;20411;-62
2021/08/04 02:32:53;;;;;;;8.00;2.90;;;15.90;99.90;;;;;;4971310;28;20467;-62
2021/08/04 02:35:19;;;;;;;5.90;2.60;;;15.80;99.90;;;;;;4970658;28;20385;-63
2021/08/04 02:37:45;;;;;;;8.55;2.97;;;15.80;99.90;;;;;;4971352;28;20487;-62
2021/08/04 02:40:12;;;;;;;5.13;2.50;;;15.80;99.90;;;;;;4970369;28;20388;-62
2021/08/04 02:42:39;;;;;;;5.65;2.60;;;15.90;99.90;;;;;;4971397;28;20388;-61
2021/08/04 02:45:07;;;;;;;11.90;3.40;;;15.90;99.90;;;;;;4971178;28;20388;-59
2021/08/04 02:47:34;;;;;;;8.00;3.03;;;15.90;99.90;;;;;;4970808;28;20452;-62
2021/08/04 02:50:02;;;;;;;7.13;3.03;;;16.00;99.90;;;;;;4971233;28;20419;-62
2021/08/04 02:52:28;;;;;;;9.15;2.80;;;16.00;99.90;;;;;;4970472;28;20663;-62
2021/08/04 02:54:54;;;;;;;7.40;2.92;;;16.10;99.90;;;;;;4971367;28;20906;-62
2021/08/04 02:57:20;;;;;;;11.52;2.90;;;16.10;99.90;;;;;;4970500;28;20416;-62
2021/08/04 02:59:45;;;;;;;6.78;2.97;;;16.20;99.90;;;;;;4971295;28;20412;-62
2021/08/04 03:02:11;;;;;;;9.93;2.90;;;16.10;99.90;;;;;;4970739;28;20871;-62
2021/08/04 03:04:37;;;;;;;9.45;3.05;;;16.10;99.90;;;;;;4971028;28;20384;-62
2021/08/04 03:07:03;;;;;;;6.35;2.80;;;16.20;99.90;;;;;;4971042;28;20443;-62
2021/08/04 03:09:28;;;;;;;6.97;3.20;;;16.20;99.90;;;;;;4970229;28;20542;-62
2021/08/04 03:11:54;;;;;;;8.93;2.80;;;14.70;99.90;;;;;;4970887;28;20482;-62
2021/08/04 03:14:20;;;;;;;7.53;2.97;;;16.20;99.90;;;;;;4970095;28;20744;-62
2021/08/04 03:16:45;;;;;;;11.85;3.20;;;16.20;99.90;;;;;;4971067;28;20483;-62
2021/08/04 03:19:12;;;;;;;8.43;2.90;;;16.20;99.90;;;;;;4969974;28;20406;-62
2021/08/04 03:21:38;;;;;;;12.15;3.03;;;16.20;99.90;;;;;;4970838;28;20389;-62
2021/08/04 03:24:04;;;;;;;10.30;3.50;;;16.20;99.90;;;;;;4971002;28;20805;-62
2021/08/04 03:26:29;;;;;;;7.97;2.80;;;16.20;99.90;;;;;;4970246;28;20446;-62
2021/08/04 03:28:55;;;;;;;10.70;3.07;;;16.20;99.90;;;;;;4971059;28;20419;-62
2021/08/04 03:31:21;;;;;;;13.43;3.50;;;16.20;99.90;;;;;;4977192;28;20941;-62
2021/08/04 03:33:46;;;;;;;9.98;2.80;;;16.30;99.90;;;;;;4990080;28;20797;-62
2021/08/04 03:36:12;;;;;;;8.20;2.75;;;16.30;99.90;;;;;;4989562;28;20461;-62
2021/08/04 03:38:38;;;;;;;10.53;3.37;;;16.40;99.90;;;;;;4990392;28;20383;-62
2021/08/04 03:41:03;;;;;;;9.70;2.85;;;16.30;99.90;;;;;;4990339;28;20382;-62
2021/08/04 03:43:29;;;;;;;7.00;2.67;;;16.30;99.90;;;;;;4993555;28;20462;-62
2021/08/04 03:45:54;;;;;;;8.20;2.50;;;16.20;99.90;;;;;;4976285;28;20761;-62
2021/08/04 03:48:20;;;;;;;9.45;2.78;;;16.10;99.90;;;;;;4992697;28;20398;-62
2021/08/04 03:50:46;;;;;;;7.63;2.60;;;16.10;99.90;;;;;;4993700;28;20901;-62
2021/08/04 03:53:11;;;;;;;6.30;2.70;;;16.10;99.90;;;;;;4993140;28;20400;-59
2021/08/04 03:55:37;;;;;;;7.82;2.70;;;16.10;99.90;;;;;;4993622;28;20382;-62
2021/08/04 03:58:03;;;;;;;7.03;2.37;;;16.10;99.90;;;;;;4994159;28;20390;-62
2021/08/04 04:00:29;;;;;;;7.80;3.00;;;16.20;99.90;;;;;;4993554;28;20578;-62
2021/08/04 04:02:54;;;;;;;6.95;2.50;;;16.20;99.90;;;;;;4993300;28;20413;-62
2021/08/04 04:05:20;;;;;;;8.83;2.70;;;16.10;99.90;;;;;;4992330;28;20537;-62
2021/08/04 04:07:45;;;;;;;6.32;2.65;;;16.10;99.90;;;;;;4993341;28;20390;-62
2021/08/04 04:10:11;;;;;;;10.20;3.00;;;16.10;99.90;;;;;;4993038;28;20907;-59
2021/08/04 04:12:37;;;;;;;8.13;2.60;;;14.70;99.90;;;;;;4992885;28;20400;-62
2021/08/04 04:15:04;;;;;;;6.65;2.72;;;16.10;99.90;;;;;;4993151;28;20397;-62
2021/08/04 04:17:30;;;;;;;8.63;2.63;;;16.10;99.90;;;;;;4992144;28;20893;-62
2021/08/04 04:19:55;;;;;;;6.45;2.40;;;16.10;99.90;;;;;;4992757;28;20950;-63
2021/08/04 04:22:21;;;;;;;9.13;2.83;;;16.10;99.90;;;;;;4992501;28;20461;-63
2021/08/04 04:24:47;;;;;;;8.30;2.80;;;16.10;99.90;;;;;;4993095;28;20418;-62
2021/08/04 04:27:13;;;;;;;9.00;2.80;;;16.10;99.90;;;;;;4992392;28;20387;-60
2021/08/04 04:29:39;;;;;;;7.80;2.60;;;16.10;99.90;;;;;;4975273;28;20418;-62
2021/08/04 04:32:09;;;;;;;11.23;3.10;;;16.10;99.90;;;;;;4981709;28;20788;-62
2021/08/04 04:34:35;;;;;;;11.52;2.85;;;16.20;99.90;;;;;;4983603;28;20392;-62
2021/08/04 04:37:01;;;;;;;8.40;2.73;;;16.20;99.90;;;;;;4981382;28;20480;-62
2021/08/04 04:39:27;;;;;;;9.93;3.33;;;16.20;99.90;;;;;;4974568;28;20407;-62
2021/08/04 04:41:53;;;;;;;6.70;2.78;;;16.20;99.90;;;;;;4984829;28;20399;-62
2021/08/04 04:44:19;;;;;;;12.75;3.47;;;16.30;99.90;;;;;;4981543;28;20389;-62
2021/08/04 04:46:44;;;;;;;10.60;3.22;;;16.30;99.90;;;;;;4981004;28;20902;-62
2021/08/04 04:49:10;;;;;;;7.40;2.40;;;16.30;99.90;;;;;;4986559;28;20801;-62
2021/08/04 04:51:36;;;;;;;10.40;3.15;;;16.50;99.90;;;;;;4974731;28;20404;-62
2021/08/04 04:54:02;;;;;;;11.80;3.10;;;16.40;99.90;;;;;;4978263;28;20398;-62
2021/08/04 04:56:28;;;;;;;10.50;2.97;;;16.40;99.90;;;;;;4981022;28;20389;-62
2021/08/04 04:58:56;;;;;;;6.82;2.53;;;16.50;99.90;;;;;;4975933;28;20422;-62
2021/08/04 05:01:22;;;;;;;10.70;3.30;;;16.60;99.90;;;;;;4954438;28;20895;-62
2021/08/04 05:03:48;;;;;;;9.50;3.00;;;16.80;99.90;;;;;;4979400;28;20418;-62
2021/08/04 05:06:13;;;;;;;8.43;2.95;;;17.10;99.90;;;;;;4991848;28;20441;-60
2021/08/04 05:08:39;;;;;;;7.70;2.60;;;18.20;99.90;;;;;;4990725;28;20402;-65
2021/08/04 05:11:05;;;;;;;10.87;2.67;;;19.80;99.90;;;;;;4972704;28;20795;-66
2021/08/04 05:13:31;;;;;;;8.00;3.00;;;21.30;99.90;;;;;;4971853;28;20399;-66
2021/08/04 05:15:56;;;;;;;6.00;2.30;;;22.30;99.90;;;;;;4972735;28;20893;-65
2021/08/04 05:18:22;;;;;;;6.90;2.33;;;23.20;99.90;;;;;;4972013;28;20882;-66
2021/08/04 05:20:48;;;;;;;8.93;2.30;;;23.60;99.90;;;;;;4972718;28;20427;-65
2021/08/04 05:23:13;;;;;;;7.77;2.60;;;24.30;99.90;;;;;;4973161;28;20398;-62
2021/08/04 05:25:39;;;;;;;6.50;2.13;;;25.10;99.90;;;;;;4981772;28;20429;-65
2021/08/04 05:28:05;;;;;;;6.43;2.80;;;25.70;99.90;;;;;;4982174;28;20388;-66
2021/08/04 05:30:31;;;;;;;12.50;3.90;;;26.00;99.90;;;;;;4980177;28;20417;-67
2021/08/04 05:32:57;;;;;;;7.70;3.23;;;25.60;99.90;;;;;;4982802;28;20395;-66
2021/08/04 05:35:22;;;;;;;6.03;2.60;;;25.20;99.90;;;;;;4980820;28;20388;-66
2021/08/04 05:37:48;;;;;;;6.47;2.60;;;25.20;99.90;;;;;;4983565;28;20398;-66
2021/08/04 05:40:14;;;;;;;7.63;2.50;;;25.60;99.90;;;;;;4968245;28;20396;-66
2021/08/04 05:42:39;;;;;;;5.97;3.90;;;25.60;99.90;;;;;;4982651;28;20398;-66
2021/08/04 05:45:06;;;;;;;6.82;3.40;;;25.00;99.90;;;;;;4980104;28;20383;-66
2021/08/04 05:47:31;;;;;;;6.10;2.70;;;24.20;99.90;;;;;;4981381;28;20422;-66
2021/08/04 05:49:57;;;;;;;7.67;3.53;;;24.10;99.90;;;;;;4972016;28;20470;-66
2021/08/04 05:52:23;;;;;;;6.20;3.60;;;24.90;99.90;;;;;;4978510;28;20412;-66
2021/08/04 05:54:48;;;;;;;6.70;3.27;;;25.60;99.90;;;;;;4979168;28;20392;-65
2021/08/04 05:57:14;;;;;;;6.00;2.90;;;24.60;99.90;;;;;;4988701;28;20393;-64
2021/08/04 05:59:39;;;;;;;7.43;2.90;;;24.30;99.90;;;;;;4985982;28;20394;-64
2021/08/04 06:02:06;;;;;;;5.50;2.70;;;24.10;99.90;;;;;;4983524;28;20696;-64
2021/08/04 06:04:31;;;;;;;6.80;2.80;;;24.60;99.90;;;;;;4981066;28;20395;-64
2021/08/04 06:06:57;;;;;;;6.60;2.60;;;24.70;99.90;;;;;;4989914;28;20842;-63
2021/08/04 06:09:22;;;;;;;7.50;2.67;;;24.40;99.90;;;;;;4971331;28;20427;-63
2021/08/04 06:11:48;;;;;;;5.30;2.17;;;23.50;99.90;;;;;;4971007;28;20427;-64
2021/08/04 06:14:14;;;;;;;6.87;2.47;;;22.80;99.90;;;;;;4953626;28;20404;-64
2021/08/04 06:16:40;;;;;;;5.22;1.90;;;22.20;99.90;;;;;;4970104;28;20423;-64
2021/08/04 06:19:05;;;;;;;6.55;2.28;;;21.90;99.90;;;;;;4971045;28;20979;-63
2021/08/04 06:21:31;;;;;;;6.22;2.10;;;21.70;99.90;;;;;;4970273;28;20902;-63
2021/08/04 06:23:56;;;;;;;7.90;2.20;;;21.40;99.90;;;;;;4971235;28;20856;-63
2021/08/04 06:26:22;;;;;;;6.07;2.27;;;21.10;99.90;;;;;;4988238;28;20441;-63
2021/08/04 06:28:51;;;;;;;8.47;2.73;;;20.60;99.90;;;;;;4990159;28;20726;-63
2021/08/04 06:31:17;;;;;;;6.00;2.38;;;20.30;99.90;;;;;;4990366;28;20461;-64
2021/08/04 06:33:43;;;;;;;6.00;2.50;;;20.20;99.90;;;;;;4972507;28;20526;-63
2021/08/04 06:36:08;;;;;;;7.00;2.40;;;20.30;99.90;;;;;;4989722;28;20874;-64
2021/08/04 06:38:34;;;;;;;6.45;2.30;;;20.30;99.90;;;;;;4989401;28;20383;-63
2021/08/04 06:41:00;;;;;;;6.40;2.38;;;20.20;99.90;;;;;;4990625;28;20504;-64
2021/08/04 06:43:26;;;;;;;6.77;2.40;;;20.40;99.90;;;;;;4989253;28;20410;-63
2021/08/04 06:45:51;;;;;;;5.78;2.40;;;21.00;99.90;;;;;;4989929;28;20390;-62
2021/08/04 06:48:17;;;;;;;5.53;2.60;;;21.00;99.90;;;;;;4990090;28;20798;-64
2021/08/04 06:50:43;;;;;;;5.27;2.27;;;21.10;99.90;;;;;;4989184;28;20944;-63
2021/08/04 06:53:09;;;;;;;6.32;2.47;;;21.00;99.90;;;;;;4990351;28;20489;-63
2021/08/04 06:55:36;;;;;;;5.50;2.10;;;20.90;99.90;;;;;;4989048;28;20418;-64
2021/08/04 06:58:02;;;;;;;9.80;2.30;;;20.80;99.90;;;;;;4990015;28;20396;-64
2021/08/04 07:00:27;;;;;;;6.45;2.10;;;21.10;99.90;;;;;;4972437;28;20400;-64
2021/08/04 07:02:53;;;;;;;5.73;2.30;;;21.20;99.90;;;;;;4970974;28;20384;-63
2021/08/04 07:05:19;;;;;;;6.73;2.03;;;21.10;99.90;;;;;;4970839;28;20456;-64
2021/08/04 07:07:45;;;;;;;6.10;2.10;;;21.40;99.90;;;;;;4969698;28;20388;-63
2021/08/04 07:10:12;;;;;;;6.10;1.95;;;22.30;99.90;;;;;;4970595;28;20411;-64
2021/08/04 07:12:38;;;;;;;7.57;2.30;;;23.30;99.90;;;;;;4969698;28;20419;-63
2021/08/04 07:15:04;;;;;;;5.87;2.10;;;24.10;99.90;;;;;;4953266;28;20828;-64
2021/08/04 07:17:41;;;;;;;5.57;2.05;;;24.90;99.90;;;;;;4971740;28;20399;-64
2021/08/04 07:20:08;;;;;;;5.53;1.90;;;25.40;99.00;;;;;;4974092;28;20450;-65
2021/08/04 07:22:34;;;;;;;6.80;5.00;;;26.30;96.60;;;;;;4973268;28;20389;-65
2021/08/04 07:25:00;;;;;;;7.60;4.15;;;26.70;95.90;;;;;;4974399;28;20426;-64
2021/08/04 07:27:26;;;;;;;5.80;3.83;;;26.00;96.00;;;;;;4973117;28;20416;-64
2021/08/04 07:29:51;;;;;;;6.05;2.63;;;25.60;96.20;;;;;;4974142;28;20463;-64
2021/08/04 07:32:17;;;;;;;6.50;2.33;;;25.00;96.20;;;;;;4974194;28;20918;-64
2021/08/04 07:34:42;;;;;;;5.50;2.10;;;24.10;98.10;;;;;;4973438;28;20388;-64
2021/08/04 07:37:08;;;;;;;7.00;3.30;;;23.50;99.70;;;;;;4974083;28;20407;-66
2021/08/04 07:39:34;;;;;;;6.10;2.30;;;23.20;99.70;;;;;;4973200;28;20411;-64
2021/08/04 07:41:59;;;;;;;6.50;2.20;;;23.20;99.90;;;;;;4973650;28;20384;-64
2021/08/04 07:44:25;;;;;;;5.73;2.20;;;23.20;99.90;;;;;;4973747;28;20389;-60
2021/08/04 07:46:51;;;;;;;8.70;2.40;;;23.60;99.90;;;;;;4973748;28;20423;-65
2021/08/04 07:49:16;;;;;;;5.38;2.10;;;24.30;99.50;;;;;;4974090;28;20958;-64
2021/08/04 07:51:42;;;;;;;6.80;1.80;;;24.20;98.30;;;;;;4973243;28;20530;-63
2021/08/04 07:54:08;;;;;;;6.43;2.40;;;23.20;99.90;;;;;;4973436;28;20384;-64
2021/08/04 07:56:33;;;;;;;7.35;2.40;;;22.60;99.90;;;;;;4972862;28;20454;-64
2021/08/04 07:59:02;;;;;;;6.43;2.40;;;22.90;99.90;;;;;;4978977;28;20437;-64
2021/08/04 08:01:29;;;;;;;7.28;2.45;;;23.60;99.70;;;;;;4992415;28;20846;-64
2021/08/04 08:03:55;;;;;;;6.63;2.30;;;24.50;98.40;;;;;;4993348;28;20864;-65
2021/08/04 08:06:20;;;;;;;5.30;1.70;;;25.00;97.40;;;;;;4993204;28;20521;-65
2021/08/04 08:08:46;;;;;;;7.95;4.95;;;26.20;95.80;;;;;;4991765;28;20884;-65
2021/08/04 08:11:12;;;;;;;9.07;6.75;;;27.80;92.90;;;;;;4992757;28;20383;-65
2021/08/04 08:13:38;;;;;;;6.53;3.80;;;29.40;86.80;;;;;;4991878;28;20387;-65
2021/08/04 08:16:03;;;;;;;6.90;5.60;;;30.10;80.10;;;;;;4992895;28;20820;-65
2021/08/04 08:18:29;;;;;;;7.38;1.98;;;29.50;80.60;;;;;;4991925;28;20990;-65
2021/08/04 08:20:55;;;;;;;5.40;1.70;;;27.90;84.10;;;;;;4992520;28;20458;-66
2021/08/04 08:23:21;;;;;;;5.80;2.00;;;27.40;87.30;;;;;;4992678;28;20486;-66
2021/08/04 08:25:47;;;;;;;6.40;4.18;;;27.90;85.50;;;;;;4991552;28;20429;-65
2021/08/04 08:28:13;;;;;;;7.18;3.92;;;26.90;84.40;;;;;;4992118;28;20405;-65
2021/08/04 08:30:39;;;;;;;6.78;2.20;;;26.20;87.80;;;;;;4991531;28;20460;-65
2021/08/04 08:33:05;;;;;;;6.00;2.10;;;26.10;90.50;;;;;;4992216;28;20882;-65
2021/08/04 08:35:30;;;;;;;5.10;1.80;;;25.80;92.10;;;;;;4991738;28;20493;-65
2021/08/04 08:37:57;;;;;;;6.17;1.90;;;26.40;90.90;;;;;;4992708;28;20387;-65
2021/08/04 08:40:23;;;;;;;6.07;2.17;;;26.60;90.50;;;;;;4992337;28;20434;-65
2021/08/04 08:42:48;;;;;;;5.13;1.80;;;26.60;90.40;;;;;;4991907;28;20901;-65
2021/08/04 08:45:15;;;;;;;5.63;2.20;;;26.20;90.90;;;;;;4992098;28;20829;-65
2021/08/04 08:47:42;;;;;;;6.03;3.05;;;25.40;91.70;;;;;;4991631;28;20849;-65
2021/08/04 08:50:09;;;;;;;7.30;3.50;;;24.40;94.80;;;;;;4992392;28;20411;-66
2021/08/04 08:52:35;;;;;;;6.68;2.80;;;24.00;94.70;;;;;;4991408;28;20411;-66
2021/08/04 08:55:02;;;;;;;7.70;2.60;;;23.40;95.70;;;;;;4991717;28;20433;-64
2021/08/04 08:57:30;;;;;;;7.47;2.60;;;22.80;97.50;;;;;;4991171;28;20382;-59
2021/08/04 08:59:57;;;;;;;6.32;2.20;;;22.70;99.20;;;;;;4978721;28;20807;-63
2021/08/04 09:02:27;;;;;;;7.13;2.60;;;22.40;99.90;;;;;;4972186;28;20392;-63
2021/08/04 09:05:10;;;;;;;7.05;2.55;;;22.00;99.90;;;;;;4972039;28;20392;-63
2021/08/04 09:07:39;;;;;;;6.47;2.53;;;20.70;99.90;;;;;;4971740;28;20400;-63
2021/08/04 09:10:27;;;;;;;5.82;2.40;;;22.10;99.90;;;;;;4972284;28;20448;-63
2021/08/04 09:12:56;;;;;;;6.50;2.67;;;21.50;99.90;;;;;;4971901;28;20400;-63
2021/08/04 09:15:34;;;;;;;6.72;2.90;;;21.50;99.90;;;;;;4972355;28;20439;-63
2021/08/04 09:18:19;;;;;;;7.22;2.60;;;21.20;99.90;;;;;;4971962;28;20447;-64
2021/08/04 09:20:52;;;;;;;6.85;1.92;;;21.00;99.90;;;;;;4971665;28;20399;-65
2021/08/04 09:23:19;;;;;;;6.55;2.53;;;20.90;99.90;;;;;;4972026;28;20396;-65
2021/08/04 09:26:10;;;;;;;6.15;2.10;;;20.90;99.90;;;;;;4971079;28;20380;-65
2021/08/04 09:28:57;;;;;;;6.10;2.20;;;21.50;99.90;;;;;;4970931;28;20392;-63
2021/08/04 09:31:43;;;;;;;6.82;2.05;;;21.80;99.90;;;;;;4954982;28;20408;-65
2021/08/04 09:34:30;;;;;;;6.32;2.30;;;22.70;99.90;;;;;;4971673;28;20491;-65
2021/08/04 09:37:17;;;;;;;7.40;2.22;;;24.10;99.90;;;;;;4971558;28;20393;-65
2021/08/04 09:39:57;;;;;;;5.47;2.65;;;26.50;96.20;;;;;;4969860;28;20389;-65
2021/08/04 09:42:41;;;;;;;5.70;2.70;;;27.90;92.00;;;;;;4971847;28;20470;-64
2021/08/04 09:45:07;;;;;;;5.90;3.05;;;27.90;91.60;;;;;;4971628;28;20471;-65
2021/08/04 09:47:33;;;;;;;6.30;3.10;;;28.10;87.70;;;;;;4970651;28;20938;-61
2021/08/04 09:50:02;;;;;;;7.93;4.20;;;27.80;87.70;;;;;;4954077;28;20428;-64
2021/08/04 09:52:31;;;;;;;7.05;3.80;;;26.10;90.60;;;;;;4971413;28;20431;-65
2021/08/04 09:55:17;;;;;;;6.70;2.30;;;24.90;92.60;;;;;;4971079;28;20387;-65
2021/08/04 09:57:45;;;;;;;8.32;2.60;;;24.00;95.60;;;;;;4970919;28;20376;-65
2021/08/04 10:00:13;;;;;;;5.95;2.30;;;24.10;97.10;;;;;;4986492;28;20429;-65
2021/08/04 10:02:39;;;;;;;5.60;2.38;;;24.60;96.90;;;;;;4990379;28;20910;-65
2021/08/04 10:05:25;;;;;;;6.05;2.05;;;25.20;95.80;;;;;;4990361;28;20422;-65
2021/08/04 10:08:05;;;;;;;5.22;2.10;;;24.90;95.40;;;;;;4990064;28;20471;-64
2021/08/04 10:10:52;;;;;;;5.57;2.38;;;24.00;96.40;;;;;;4989381;28;20414;-61
2021/08/04 10:13:21;;;;;;;6.07;2.30;;;23.70;96.90;;;;;;4990956;28;20698;-65
2021/08/04 10:15:57;;;;;;;5.68;2.30;;;23.40;97.60;;;;;;4990212;28;20387;-65
2021/08/04 10:18:33;;;;;;;6.65;2.70;;;23.10;98.30;;;;;;4990731;28;20417;-65
2021/08/04 10:21:04;;;;;;;6.57;2.55;;;23.10;98.90;;;;;;4990322;28;20418;-64
2021/08/04 10:23:31;;;;;;;6.60;2.50;;;22.90;99.10;;;;;;4989559;28;20425;-65
2021/08/04 10:25:58;;;;;;;6.20;2.55;;;22.80;99.90;;;;;;4989680;28;20386;-64
2021/08/04 10:28:25;;;;;;;6.30;2.50;;;22.80;99.90;;;;;;4990172;28;20409;-64
2021/08/04 10:30:51;;;;;;;6.10;2.50;;;22.90;99.90;;;;;;4989722;28;20407;-63
2021/08/04 10:33:17;;;;;;;7.03;2.90;;;22.50;99.90;;;;;;4990294;28;20383;-65
2021/08/04 10:35:50;;;;;;;6.00;2.35;;;22.60;99.90;;;;;;4989597;28;20382;-64
2021/08/04 10:38:20;;;;;;;5.72;2.50;;;22.90;99.90;;;;;;4990301;28;20418;-67
2021/08/04 10:41:06;;;;;;;6.45;2.20;;;23.20;99.90;;;;;;4989567;28;20394;-65
2021/08/04 10:43:45;;;;;;;6.20;2.50;;;23.50;98.80;;;;;;4989941;28;20508;-65
2021/08/04 10:46:29;;;;;;;7.15;2.85;;;23.60;97.90;;;;;;4989784;28;20406;-64
2021/08/04 10:49:04;;;;;;;6.30;2.35;;;23.40;98.10;;;;;;4989061;28;20869;-65
2021/08/04 10:51:35;;;;;;;7.15;2.33;;;23.60;98.70;;;;;;4989312;28;20391;-65
2021/08/04 10:54:00;;;;;;;6.75;2.67;;;23.70;98.20;;;;;;4972662;28;20823;-65
2021/08/04 10:56:32;;;;;;;6.72;2.50;;;24.00;98.30;;;;;;4989874;28;20433;-68
2021/08/04 10:59:10;;;;;;;7.07;2.70;;;24.50;97.00;;;;;;4984143;28;20403;-65
2021/08/04 11:01:46;;;;;;;6.28;2.60;;;24.50;96.60;;;;;;4970330;28;20487;-60
2021/08/04 11:04:44;;;;;;;5.40;2.50;;;24.40;95.20;;;;;;4970442;28;20402;-65
2021/08/04 11:07:19;;;;;;;7.32;2.50;;;23.90;96.20;;;;;;4969961;28;20431;-64
2021/08/04 11:09:51;;;;;;;6.28;2.50;;;23.40;97.20;;;;;;4969312;28;20419;-65
2021/08/04 11:12:17;;;;;;;6.53;2.72;;;23.60;98.80;;;;;;4970575;28;20395;-65
2021/08/04 11:14:46;;;;;;;7.10;2.53;;;24.20;97.10;;;;;;4969403;28;20388;-65
2021/08/04 11:17:33;;;;;;;6.78;2.30;;;24.40;97.40;;;;;;4970677;28;20500;-67
2021/08/04 11:22:31;;;;;;;6.00;2.57;;;25.20;96.70;;;;;;4970747;28;20397;-64
2021/08/04 11:25:03;;;;;;;7.05;2.65;;;25.40;95.00;;;;;;4969969;28;20463;-67
2021/08/04 11:27:31;;;;;;;8.27;2.63;;;25.50;94.30;;;;;;4970599;28;20398;-66
2021/08/04 11:29:58;;;;;;;6.20;2.60;;;25.70;93.00;;;;;;4969675;28;20412;-66
2021/08/04 11:32:31;;;;;;;6.30;2.70;;;25.80;92.80;;;;;;4970651;28;20400;-67
2021/08/04 11:34:58;;;;;;;9.77;3.50;;;25.10;92.90;;;;;;4969226;28;20388;-67
2021/08/04 11:37:28;;;;;;;7.27;2.53;;;25.00;94.30;;;;;;4970160;28;20898;-66
2021/08/04 11:40:02;;;;;;;7.07;2.50;;;24.80;94.30;;;;;;4969477;28;20388;-65
2021/08/04 11:42:30;;;;;;;8.60;3.20;;;24.90;95.20;;;;;;4970265;28;20475;-67
2021/08/04 11:45:03;;;;;;;6.80;3.10;;;24.60;94.70;;;;;;4969600;28;20384;-67
2021/08/04 11:47:29;;;;;;;6.03;2.50;;;24.50;93.90;;;;;;4969613;28;20467;-67
2021/08/04 11:49:57;;;;;;;6.93;2.50;;;24.80;94.50;;;;;;4969417;28;20412;-67
2021/08/04 11:52:25;;;;;;;7.15;2.90;;;25.00;93.70;;;;;;4969921;28;20443;-66
2021/08/04 11:55:05;;;;;;;7.88;3.00;;;25.00;94.20;;;;;;4969712;28;20384;-67
2021/08/04 11:57:33;;;;;;;6.97;2.90;;;25.20;93.00;;;;;;4970286;28;20415;-67
2021/08/04 12:00:19;;;;;;;5.80;2.45;;;25.10;93.60;;;;;;4982388;28;20429;-68
2021/08/04 12:02:46;;;;;;;7.50;2.70;;;24.70;94.80;;;;;;4989847;28;20415;-66
2021/08/04 12:05:12;;;;;;;6.03;2.42;;;24.70;95.50;;;;;;4992904;28;20401;-67
2021/08/04 12:07:43;;;;;;;8.27;3.00;;;24.80;94.20;;;;;;4992851;28;21219;-61
2021/08/04 12:10:20;;;;;;;6.07;2.00;;;24.80;94.00;;;;;;4993008;28;20454;-65
2021/08/04 12:12:51;;;;;;;6.90;2.60;;;25.00;94.80;;;;;;4992010;28;20477;-66
2021/08/04 12:15:20;;;;;;;6.10;3.00;;;25.20;93.90;;;;;;4992581;28;20386;-67
2021/08/04 12:17:51;;;;;;;6.82;3.20;;;25.40;93.30;;;;;;4992247;28;20429;-66
2021/08/04 12:20:22;;;;;;;8.52;2.97;;;25.10;92.40;;;;;;4992691;28;20395;-65
2021/08/04 12:22:57;;;;;;;8.10;2.80;;;25.00;93.30;;;;;;4991725;28;20398;-66
2021/08/04 12:25:23;;;;;;;6.57;2.80;;;24.90;94.00;;;;;;4991934;28;20401;-66
2021/08/04 12:27:51;;;;;;;7.67;3.07;;;24.90;93.70;;;;;;4992035;28;20850;-66
2021/08/04 12:30:26;;;;;;;6.68;2.80;;;25.00;93.70;;;;;;4992181;28;20475;-66
2021/08/04 12:33:03;;;;;;;6.00;2.53;;;25.10;93.80;;;;;;4991912;28;20395;-66
2021/08/04 12:35:41;;;;;;;7.00;2.40;;;25.20;92.20;;;;;;4992518;28;20406;-66
2021/08/04 12:38:20;;;;;;;6.35;2.70;;;25.20;92.50;;;;;;4992171;28;21155;-65
2021/08/04 12:40:48;;;;;;;8.45;2.25;;;25.20;92.40;;;;;;4991916;28;20876;-67
2021/08/04 12:43:14;;;;;;;6.13;2.22;;;25.40;91.90;;;;;;4992093;28;20383;-65
2021/08/04 12:45:45;;;;;;;14.43;3.47;;;25.30;91.00;;;;;;4991819;28;20436;-61
2021/08/04 12:48:11;;;;;;;7.28;2.42;;;25.40;91.10;;;;;;4992172;28;20478;-66
2021/08/04 12:50:55;;;;;;;6.10;2.40;;;25.20;90.00;;;;;;4992320;28;20402;-64
2021/08/04 12:53:32;;;;;;;7.90;3.00;;;25.20;90.70;;;;;;4992119;28;20394;-66
2021/08/04 12:56:10;;;;;;;7.60;2.80;;;25.20;91.40;;;;;;4991560;28;20518;-66